ADDS METAR Data INFO
IDs: Format: Raw Decoded Include TAF

Data at: 2002 UTC 19 Oct 2017

KRMN 191955Z AUTO 00000KT 10SM CLR 23/06 A3021 RMK AO2 T02310055
KRMN 191935Z AUTO 00000KT 10SM CLR 23/06 A3022 RMK AO2 T02320057
KRMN 191915Z AUTO 23004KT 10SM CLR 23/06 A3022 RMK AO2 T02330061
KRMN 191855Z AUTO 00000KT 10SM CLR 23/06 A3023 RMK AO2 T02320058
KRMN 191835Z AUTO 22004KT 10SM CLR 23/06 A3024 RMK AO2 T02280059
KRMN 191815Z AUTO 22005KT 10SM CLR 23/06 A3024 RMK AO2 T02270057
KRMN 191755Z AUTO 20004KT 10SM CLR 22/05 A3025 RMK AO2 T02230054 10223 20019
KRMN 191735Z AUTO 00000KT 10SM CLR 22/05 A3025 RMK AO2 T02150052
KRMN 191715Z AUTO 22004KT 10SM CLR 21/05 A3026 RMK AO2 T02110054
KRMN 191655Z AUTO 20004KT 10SM CLR 21/07 A3028 RMK AO2 T02090065
KRMN 191635Z AUTO 19004KT 10SM CLR 20/06 A3029 RMK AO2 T01990059
KRMN 191615Z AUTO 21005KT 10SM CLR 20/06 A3030 RMK AO2 T01950061
KRMN 191555Z AUTO 19006KT 10SM CLR 19/06 A3031 RMK AO2 T01880057
KRMN 191535Z AUTO 24005KT 10SM CLR 19/05 A3031 RMK AO2 T01860053
KRMN 191515Z AUTO 20007KT 10SM CLR 18/06 A3031 RMK AO2 T01830060
KRMN 191415Z AUTO 00000KT 10SM CLR 14/09 A3033 RMK AO2 T01350090
KRMN 191355Z AUTO 16003KT 10SM CLR 12/09 A3033 RMK AO2 T01170092
KRMN 191335Z AUTO 00000KT 10SM CLR 10/09 A3033 RMK AO2 T01030089
KRMN 191315Z AUTO 00000KT 10SM CLR 09/09 A3033 RMK AO2 T00900087
KRMN 191255Z AUTO 00000KT 10SM CLR 07/07 A3033 RMK AO2 T00710071
KRMN 191235Z AUTO 00000KT 10SM CLR 05/05 A3033 RMK AO2 T00510051
KRMN 191215Z AUTO 00000KT 10SM CLR 03/03 A3032 RMK AO2 T00270027
KRMN 191155Z AUTO 00000KT 3SM BR CLR 02/02 A3032 RMK AO2 T00190019 10045 20013
KRMN 191135Z AUTO 00000KT 4SM BR CLR 02/02 A3032 RMK AO2 T00150015
KRMN 191115Z AUTO 00000KT 7SM CLR 02/02 A3032 RMK AO2 T00170017
KRMN 191055Z AUTO 00000KT 7SM CLR 02/02 A3033 RMK AO2 T00230023
KRMN 191035Z AUTO 00000KT 10SM CLR 02/02 A3032 RMK AO2 T00210021
KRMN 191015Z AUTO 00000KT 10SM CLR 02/02 A3032 RMK AO2 T00180018
KRMN 190955Z AUTO 00000KT 3SM BR CLR 03/03 A3032 RMK AO2 T00280028
KRMN 190935Z AUTO 00000KT 10SM CLR 03/03 A3032 RMK AO2 T00280028
KRMN 190915Z AUTO 00000KT 10SM CLR 02/02 A3032 RMK AO2 T00240024
KRMN 190855Z AUTO 00000KT 10SM CLR 02/02 A3032 RMK AO2 T00190019
KRMN 190835Z AUTO 00000KT 7SM CLR 02/02 A3032 RMK AO2 T00240024
KRMN 190815Z AUTO 00000KT 10SM CLR 03/03 A3032 RMK AO2 T00250025
KRMN 190755Z AUTO 00000KT 7SM CLR 03/03 A3033 RMK AO2 T00280028
KRMN 190735Z AUTO 00000KT 10SM CLR 03/03 A3032 RMK AO2 T00280028
KRMN 190715Z AUTO 00000KT 2SM BR CLR 04/04 A3033 RMK AO2 T00380038
KRMN 190655Z AUTO 00000KT 10SM CLR 03/03 A3034 RMK AO2 T00310031
KRMN 190635Z AUTO 00000KT 10SM CLR 03/03 A3034 RMK AO2 T00280028
KRMN 190615Z AUTO 00000KT 1 1/2SM BR VV007 04/04 A3034 RMK AO2 T00380038
KRMN 190555Z AUTO 00000KT 10SM CLR 04/04 A3035 RMK AO2 T00380038 10096 20038 402120000
KRMN 190535Z AUTO 00000KT 10SM CLR 04/04 A3035 RMK AO2 T00400040
KRMN 190515Z AUTO 00000KT 10SM CLR 04/04 A3035 RMK AO2 T00430043
KRMN 190455Z AUTO 00000KT 10SM CLR 04/04 A3036 RMK AO2 T00400040
KRMN 190435Z AUTO 00000KT 10SM CLR 05/05 A3036 RMK AO2 T00500050
KRMN 190415Z AUTO 00000KT 10SM CLR 05/05 A3036 RMK AO2 T00480048
KRMN 190355Z AUTO 00000KT 10SM CLR 05/05 A3036 RMK AO2 T00500050
KRMN 190335Z AUTO 00000KT 10SM CLR 05/05 A3036 RMK AO2 T00530053
KRMN 190315Z AUTO 00000KT 10SM CLR 06/06 A3036 RMK AO2 T00630063
KRMN 190255Z AUTO 00000KT 10SM CLR 06/06 A3036 RMK AO2 T00610061
KRMN 190235Z AUTO 00000KT 10SM CLR 06/06 A3035 RMK AO2 T00610061
KRMN 190215Z AUTO 00000KT 10SM CLR 07/07 A3036 RMK AO2 T00650065
KRMN 190155Z AUTO 00000KT 10SM CLR 07/07 A3036 RMK AO2 T00680068
KRMN 190135Z AUTO 00000KT 10SM CLR 07/07 A3036 RMK AO2 T00710071
KRMN 190115Z AUTO 00000KT 10SM CLR 07/07 A3036 RMK AO2 T00720072
KRMN 190055Z AUTO 00000KT 10SM CLR 08/08 A3036 RMK AO2 T00780078
KRMN 190035Z AUTO 00000KT 10SM CLR 09/09 A3036 RMK AO2 T00860086
KRMN 190015Z AUTO 00000KT 10SM CLR 09/09 A3036 RMK AO2 T00870087
KRMN 182355Z AUTO 00000KT 10SM CLR 10/10 A3035 RMK AO2 T00960096 10212 20096
KRMN 182335Z AUTO 00000KT 10SM CLR 10/10 A3035 RMK AO2 T00970097
KRMN 182315Z AUTO 00000KT 10SM CLR 11/10 A3035 RMK AO2 T01120099
KRMN 182255Z AUTO 00000KT 10SM CLR 12/10 A3035 RMK AO2 T01190103
KRMN 182235Z AUTO 00000KT 10SM CLR 13/10 A3035 RMK AO2 T01320101
KRMN 182215Z AUTO 00000KT 10SM CLR 17/08 A3035 RMK AO2 T01660077
KRMN 182155Z AUTO 00000KT 10SM CLR 19/05 A3034 RMK AO2 T01850051
KRMN 182135Z AUTO 00000KT 10SM CLR 19/05 A3035 RMK AO2 T01940050
KRMN 182115Z AUTO 00000KT 10SM CLR 20/05 A3035 RMK AO2 T01950048
KRMN 182055Z AUTO 18004KT 10SM CLR 21/05 A3035 RMK AO2 T02050045
KRMN 182035Z AUTO 18005KT 10SM CLR 21/04 A3035 RMK AO2 T02060044
KRMN 182015Z AUTO 00000KT 10SM CLR 21/04 A3036 RMK AO2 T02050036
KRMN 181955Z AUTO 14003KT 10SM CLR 21/04 A3036 RMK AO2 T02110039
KRMN 181935Z AUTO 18004KT 10SM CLR 21/04 A3037 RMK AO2 T02070035
KRMN 181915Z AUTO 00000KT 10SM CLR 21/03 A3037 RMK AO2 T02100031
KRMN 181855Z AUTO 00000KT 10SM CLR 21/03 A3038 RMK AO2 T02050029
KRMN 181835Z AUTO 21004KT 10SM CLR 21/03 A3038 RMK AO2 T02060031
KRMN 181815Z AUTO 00000KT 10SM CLR 20/03 A3039 RMK AO2 T02030029
KRMN 181755Z AUTO 00000KT 10SM CLR 20/04 A3039 RMK AO2 T02020040 10202 20008
KRMN 181735Z AUTO 18004KT 10SM CLR 20/04 A3040 RMK AO2 T02010038
KRMN 181715Z AUTO 00000KT 10SM CLR 20/05 A3042 RMK AO2 T01960045
KRMN 181655Z AUTO 10003KT 10SM CLR 19/05 A3043 RMK AO2 T01930046
KRMN 181635Z AUTO 21004KT 10SM CLR 19/04 A3044 RMK AO2 T01850044
KRMN 181615Z AUTO 00000KT 10SM CLR 18/05 A3044 RMK AO2 T01820049
KRMN 181555Z AUTO 00000KT 10SM CLR 17/05 A3045 RMK AO2 T01730050
KRMN 181535Z AUTO 00000KT 10SM CLR 17/05 A3045 RMK AO2 T01660051
KRMN 181515Z AUTO 00000KT 10SM CLR 16/07 A3045 RMK AO2 T01590069
KRMN 181455Z AUTO 00000KT 10SM CLR 15/07 A3045 RMK AO2 T01450068
KRMN 181435Z AUTO 00000KT 10SM CLR 13/07 A3045 RMK AO2 T01310074
KRMN 181415Z AUTO 00000KT 10SM CLR 12/07 A3045 RMK AO2 T01160072
KRMN 181355Z AUTO 00000KT 10SM CLR 10/07 A3045 RMK AO2 T00990072
KRMN 181335Z AUTO 00000KT 10SM CLR 09/07 A3044 RMK AO2 T00850071
KRMN 181315Z AUTO 00000KT 10SM CLR 07/07 A3045 RMK AO2 T00690066
KRMN 181255Z AUTO 00000KT 10SM CLR 05/05 A3044 RMK AO2 T00540054
KRMN 181235Z AUTO 00000KT 10SM CLR 04/04 A3043 RMK AO2 T00400040
KRMN 181215Z AUTO 00000KT 10SM CLR 02/02 A3043 RMK AO2 T00230023
KRMN 181155Z AUTO 00000KT 10SM CLR 01/01 A3043 RMK AO2 T00080008 10020 20000
KRMN 181135Z AUTO 00000KT 10SM CLR 01/01 A3042 RMK AO2 T00060006
KRMN 181115Z AUTO 00000KT 10SM CLR 00/00 A3041 RMK AO2 T00030003
KRMN 181055Z AUTO 00000KT 10SM CLR 00/00 A3041 RMK AO2 T00000000
KRMN 181035Z AUTO 00000KT 10SM CLR 00/00 A3041 RMK AO2 T00010001
KRMN 181015Z AUTO 00000KT 10SM CLR 00/00 A3040 RMK AO2 T00020002
KRMN 180955Z AUTO 00000KT 10SM CLR 00/00 A3040 RMK AO2 T00020002
KRMN 180935Z AUTO 00000KT 10SM CLR 01/01 A3039 RMK AO2 T00060006
KRMN 180915Z AUTO 00000KT 10SM CLR 00/00 A3039 RMK AO2 T00030003
KRMN 180855Z AUTO 00000KT 10SM CLR 00/00 A3039 RMK AO2 T00030003
KRMN 180835Z AUTO 00000KT 10SM CLR 01/01 A3038 RMK AO2 T00110011
KRMN 180815Z AUTO 00000KT 10SM CLR 01/01 A3038 RMK AO2 T00090009